sensor_id;sensor_type;location;lat;lon;timestamp;temperature;humidity
23609;DHT22;11982;50.810;4.442;2023-01-25T00:01:57;2.20;99.90
23609;DHT22;11982;50.810;4.442;2023-01-25T00:04:22;2.30;99.90
23609;DHT22;11982;50.810;4.442;2023-01-25T00:06:48;2.30;99.90
23609;DHT22;11982;50.810;4.442;2023-01-25T00:09:15;2.40;99.90
23609;DHT22;11982;50.810;4.442;2023-01-25T00:11:41;2.50;99.90
23609;DHT22;11982;50.810;4.442;2023-01-25T00:14:09;2.70;99.90
23609;DHT22;11982;50.810;4.442;2023-01-25T00:16:36;2.90;99.90
23609;DHT22;11982;50.810;4.442;2023-01-25T00:19:02;2.70;99.90
23609;DHT22;11982;50.810;4.442;2023-01-25T00:21:28;2.80;99.90
23609;DHT22;11982;50.810;4.442;2023-01-25T00:23:54;2.80;99.90
23609;DHT22;11982;50.810;4.442;2023-01-25T00:26:20;2.90;99.90
23609;DHT22;11982;50.810;4.442;2023-01-25T00:28:50;2.90;99.90
23609;DHT22;11982;50.810;4.442;2023-01-25T00:36:44;2.60;99.90
23609;DHT22;11982;50.810;4.442;2023-01-25T00:39:12;2.50;99.90
23609;DHT22;11982;50.810;4.442;2023-01-25T00:41:38;2.30;99.90
23609;DHT22;11982;50.810;4.442;2023-01-25T00:44:04;2.20;99.90
23609;DHT22;11982;50.810;4.442;2023-01-25T00:46:30;2.10;99.90
23609;DHT22;11982;50.810;4.442;2023-01-25T00:48:56;2.10;99.90
23609;DHT22;11982;50.810;4.442;2023-01-25T00:51:23;2.20;99.90
23609;DHT22;11982;50.810;4.442;2023-01-25T00:53:49;2.30;99.90
23609;DHT22;11982;50.810;4.442;2023-01-25T00:56:15;2.20;99.90
23609;DHT22;11982;50.810;4.442;2023-01-25T00:58:41;2.20;99.90
23609;DHT22;11982;50.810;4.442;2023-01-25T01:01:07;2.30;99.90
23609;DHT22;11982;50.810;4.442;2023-01-25T01:03:32;2.40;99.90
23609;DHT22;11982;50.810;4.442;2023-01-25T01:06:08;2.50;99.90
23609;DHT22;11982;50.810;4.442;2023-01-25T01:08:35;2.50;99.90
23609;DHT22;11982;50.810;4.442;2023-01-25T01:11:05;2.70;99.90
23609;DHT22;11982;50.810;4.442;2023-01-25T01:13:31;2.70;99.90
23609;DHT22;11982;50.810;4.442;2023-01-25T01:15:59;2.60;99.90
23609;DHT22;11982;50.810;4.442;2023-01-25T01:18:27;2.70;99.90
23609;DHT22;11982;50.810;4.442;2023-01-25T01:20:53;2.70;99.90
23609;DHT22;11982;50.810;4.442;2023-01-25T01:23:19;2.80;99.90
23609;DHT22;11982;50.810;4.442;2023-01-25T01:25:45;2.90;99.90
23609;DHT22;11982;50.810;4.442;2023-01-25T01:28:12;2.70;99.90
23609;DHT22;11982;50.810;4.442;2023-01-25T01:30:38;2.50;99.90
23609;DHT22;11982;50.810;4.442;2023-01-25T01:33:05;2.40;99.90
23609;DHT22;11982;50.810;4.442;2023-01-25T01:35:31;2.40;99.90
23609;DHT22;11982;50.810;4.442;2023-01-25T01:37:57;2.50;99.90
23609;DHT22;11982;50.810;4.442;2023-01-25T01:40:23;2.50;99.90
23609;DHT22;11982;50.810;4.442;2023-01-25T01:48:29;2.10;99.90
23609;DHT22;11982;50.810;4.442;2023-01-25T01:50:59;2.00;99.90
23609;DHT22;11982;50.810;4.442;2023-01-25T01:53:27;1.90;99.90
23609;DHT22;11982;50.810;4.442;2023-01-25T01:55:58;1.80;99.90
23609;DHT22;11982;50.810;4.442;2023-01-25T01:58:25;1.80;99.90
23609;DHT22;11982;50.810;4.442;2023-01-25T02:00:51;1.70;99.90
23609;DHT22;11982;50.810;4.442;2023-01-25T02:03:17;1.70;99.90
23609;DHT22;11982;50.810;4.442;2023-01-25T02:06:13;1.50;99.90
23609;DHT22;11982;50.810;4.442;2023-01-25T02:08:40;1.40;99.90
23609;DHT22;11982;50.810;4.442;2023-01-25T02:11:08;1.40;99.90
23609;DHT22;11982;50.810;4.442;2023-01-25T02:13:35;1.50;99.90
23609;DHT22;11982;50.810;4.442;2023-01-25T02:16:02;1.60;99.90
23609;DHT22;11982;50.810;4.442;2023-01-25T02:18:29;1.70;99.90
23609;DHT22;11982;50.810;4.442;2023-01-25T02:20:57;1.70;99.90
23609;DHT22;11982;50.810;4.442;2023-01-25T02:26:08;1.50;99.90
23609;DHT22;11982;50.810;4.442;2023-01-25T02:28:53;1.50;99.90
23609;DHT22;11982;50.810;4.442;2023-01-25T02:31:20;1.40;99.90
23609;DHT22;11982;50.810;4.442;2023-01-25T02:33:46;1.40;99.90
23609;DHT22;11982;50.810;4.442;2023-01-25T02:39:13;1.30;99.90
23609;DHT22;11982;50.810;4.442;2023-01-25T02:41:44;1.50;99.90
23609;DHT22;11982;50.810;4.442;2023-01-25T02:44:20;1.60;99.90
23609;DHT22;11982;50.810;4.442;2023-01-25T02:46:47;1.60;99.90
23609;DHT22;11982;50.810;4.442;2023-01-25T02:49:14;1.60;99.90
23609;DHT22;11982;50.810;4.442;2023-01-25T02:51:43;1.40;99.90
23609;DHT22;11982;50.810;4.442;2023-01-25T02:54:11;1.50;99.90
23609;DHT22;11982;50.810;4.442;2023-01-25T02:56:38;1.50;99.90
23609;DHT22;11982;50.810;4.442;2023-01-25T02:59:05;1.50;99.90
23609;DHT22;11982;50.810;4.442;2023-01-25T03:01:35;1.60;99.90
23609;DHT22;11982;50.810;4.442;2023-01-25T03:04:02;1.70;99.90
23609;DHT22;11982;50.810;4.442;2023-01-25T03:06:27;1.80;99.90
23609;DHT22;11982;50.810;4.442;2023-01-25T03:08:53;2.00;99.90
23609;DHT22;11982;50.810;4.442;2023-01-25T03:11:19;2.10;99.90
23609;DHT22;11982;50.810;4.442;2023-01-25T03:13:45;2.10;99.90
23609;DHT22;11982;50.810;4.442;2023-01-25T03:16:11;2.30;99.90
23609;DHT22;11982;50.810;4.442;2023-01-25T03:18:38;2.30;99.90
23609;DHT22;11982;50.810;4.442;2023-01-25T03:21:15;2.30;99.90
23609;DHT22;11982;50.810;4.442;2023-01-25T03:23:42;2.40;99.90
23609;DHT22;11982;50.810;4.442;2023-01-25T03:26:17;2.50;99.90
23609;DHT22;11982;50.810;4.442;2023-01-25T03:28:43;2.40;99.90
23609;DHT22;11982;50.810;4.442;2023-01-25T03:31:11;2.30;99.90
23609;DHT22;11982;50.810;4.442;2023-01-25T03:33:37;2.00;99.90
23609;DHT22;11982;50.810;4.442;2023-01-25T03:36:03;1.70;99.90
23609;DHT22;11982;50.810;4.442;2023-01-25T03:38:29;1.60;99.90
23609;DHT22;11982;50.810;4.442;2023-01-25T03:40:56;1.40;99.90
23609;DHT22;11982;50.810;4.442;2023-01-25T03:43:21;1.40;99.90
23609;DHT22;11982;50.810;4.442;2023-01-25T03:45:55;1.50;99.90
23609;DHT22;11982;50.810;4.442;2023-01-25T03:48:22;1.70;99.90
23609;DHT22;11982;50.810;4.442;2023-01-25T03:50:53;1.80;99.90
23609;DHT22;11982;50.810;4.442;2023-01-25T03:53:19;1.80;99.90
23609;DHT22;11982;50.810;4.442;2023-01-25T03:55:54;1.90;99.90
23609;DHT22;11982;50.810;4.442;2023-01-25T03:58:20;1.80;99.90
23609;DHT22;11982;50.810;4.442;2023-01-25T04:00:46;1.60;99.90
23609;DHT22;11982;50.810;4.442;2023-01-25T04:03:12;1.70;99.90
23609;DHT22;11982;50.810;4.442;2023-01-25T04:05:37;1.80;99.90
23609;DHT22;11982;50.810;4.442;2023-01-25T04:08:03;1.90;99.90
23609;DHT22;11982;50.810;4.442;2023-01-25T04:10:29;1.80;99.90
23609;DHT22;11982;50.810;4.442;2023-01-25T04:12:55;2.10;99.90
23609;DHT22;11982;50.810;4.442;2023-01-25T04:15:20;2.00;99.90
23609;DHT22;11982;50.810;4.442;2023-01-25T04:17:46;1.90;99.90
23609;DHT22;11982;50.810;4.442;2023-01-25T04:20:11;1.80;99.90
23609;DHT22;11982;50.810;4.442;2023-01-25T04:22:37;1.70;99.90
23609;DHT22;11982;50.810;4.442;2023-01-25T04:25:03;1.60;99.90
23609;DHT22;11982;50.810;4.442;2023-01-25T04:27:29;1.60;99.90
23609;DHT22;11982;50.810;4.442;2023-01-25T04:29:54;1.50;99.90
23609;DHT22;11982;50.810;4.442;2023-01-25T04:32:20;1.50;99.90
23609;DHT22;11982;50.810;4.442;2023-01-25T04:34:45;1.50;99.90
23609;DHT22;11982;50.810;4.442;2023-01-25T04:37:11;1.50;99.90
23609;DHT22;11982;50.810;4.442;2023-01-25T04:39:37;1.40;99.90
23609;DHT22;11982;50.810;4.442;2023-01-25T04:42:02;1.40;99.90
23609;DHT22;11982;50.810;4.442;2023-01-25T04:44:28;1.30;99.90
23609;DHT22;11982;50.810;4.442;2023-01-25T04:46:54;1.20;99.90
23609;DHT22;11982;50.810;4.442;2023-01-25T04:49:22;1.20;99.90
23609;DHT22;11982;50.810;4.442;2023-01-25T04:51:47;1.20;99.90
23609;DHT22;11982;50.810;4.442;2023-01-25T04:54:13;1.40;99.90
23609;DHT22;11982;50.810;4.442;2023-01-25T04:56:38;1.40;99.90
23609;DHT22;11982;50.810;4.442;2023-01-25T04:59:04;1.50;99.90
23609;DHT22;11982;50.810;4.442;2023-01-25T05:01:30;1.50;99.90
23609;DHT22;11982;50.810;4.442;2023-01-25T05:03:58;1.50;99.90
23609;DHT22;11982;50.810;4.442;2023-01-25T05:06:24;1.50;99.90
23609;DHT22;11982;50.810;4.442;2023-01-25T05:08:50;1.50;99.90
23609;DHT22;11982;50.810;4.442;2023-01-25T05:11:15;1.30;99.90
23609;DHT22;11982;50.810;4.442;2023-01-25T05:13:41;1.40;99.90
23609;DHT22;11982;50.810;4.442;2023-01-25T05:16:07;1.40;99.90
23609;DHT22;11982;50.810;4.442;2023-01-25T05:18:33;1.30;99.90
23609;DHT22;11982;50.810;4.442;2023-01-25T05:20:58;1.20;99.90
23609;DHT22;11982;50.810;4.442;2023-01-25T05:23:24;1.30;99.90
23609;DHT22;11982;50.810;4.442;2023-01-25T05:25:49;1.30;99.90
23609;DHT22;11982;50.810;4.442;2023-01-25T05:28:34;1.20;99.90
23609;DHT22;11982;50.810;4.442;2023-01-25T05:31:03;1.30;99.90
23609;DHT22;11982;50.810;4.442;2023-01-25T05:33:29;1.40;99.90
23609;DHT22;11982;50.810;4.442;2023-01-25T05:35:54;1.40;99.90
23609;DHT22;11982;50.810;4.442;2023-01-25T05:38:20;1.30;99.90
23609;DHT22;11982;50.810;4.442;2023-01-25T05:40:46;1.40;99.90
23609;DHT22;11982;50.810;4.442;2023-01-25T05:43:12;1.20;99.90
23609;DHT22;11982;50.810;4.442;2023-01-25T05:45:37;1.20;99.90
23609;DHT22;11982;50.810;4.442;2023-01-25T05:48:04;1.40;99.90
23609;DHT22;11982;50.810;4.442;2023-01-25T05:50:30;1.60;99.90
23609;DHT22;11982;50.810;4.442;2023-01-25T05:52:56;1.70;99.90
23609;DHT22;11982;50.810;4.442;2023-01-25T05:55:22;1.80;99.90
23609;DHT22;11982;50.810;4.442;2023-01-25T05:57:47;1.90;99.90
23609;DHT22;11982;50.810;4.442;2023-01-25T06:00:13;2.00;99.90
23609;DHT22;11982;50.810;4.442;2023-01-25T06:02:39;2.00;99.90
23609;DHT22;11982;50.810;4.442;2023-01-25T06:05:05;1.90;99.90
23609;DHT22;11982;50.810;4.442;2023-01-25T06:07:35;1.80;99.90
23609;DHT22;11982;50.810;4.442;2023-01-25T06:10:02;1.70;99.90
23609;DHT22;11982;50.810;4.442;2023-01-25T06:12:28;1.80;99.90
23609;DHT22;11982;50.810;4.442;2023-01-25T06:14:53;1.70;99.90
23609;DHT22;11982;50.810;4.442;2023-01-25T06:17:22;1.50;99.90
23609;DHT22;11982;50.810;4.442;2023-01-25T06:19:47;1.50;99.90
23609;DHT22;11982;50.810;4.442;2023-01-25T06:22:13;1.40;99.90
23609;DHT22;11982;50.810;4.442;2023-01-25T06:24:39;0.90;99.90
23609;DHT22;11982;50.810;4.442;2023-01-25T06:27:04;0.60;99.90
23609;DHT22;11982;50.810;4.442;2023-01-25T06:29:30;0.70;99.90
23609;DHT22;11982;50.810;4.442;2023-01-25T06:31:55;0.90;99.90
23609;DHT22;11982;50.810;4.442;2023-01-25T06:34:21;0.70;99.90
23609;DHT22;11982;50.810;4.442;2023-01-25T06:36:49;0.80;99.90
23609;DHT22;11982;50.810;4.442;2023-01-25T06:39:14;0.80;99.90
23609;DHT22;11982;50.810;4.442;2023-01-25T06:41:40;1.00;99.90
23609;DHT22;11982;50.810;4.442;2023-01-25T06:44:07;0.90;99.90
23609;DHT22;11982;50.810;4.442;2023-01-25T06:46:32;1.00;99.90
23609;DHT22;11982;50.810;4.442;2023-01-25T06:48:58;1.00;99.90
23609;DHT22;11982;50.810;4.442;2023-01-25T06:51:23;1.00;99.90
23609;DHT22;11982;50.810;4.442;2023-01-25T06:53:49;1.00;99.90
23609;DHT22;11982;50.810;4.442;2023-01-25T06:56:19;0.90;99.90
23609;DHT22;11982;50.810;4.442;2023-01-25T06:58:46;1.00;99.90
23609;DHT22;11982;50.810;4.442;2023-01-25T07:01:13;0.90;99.90
23609;DHT22;11982;50.810;4.442;2023-01-25T07:03:39;0.80;99.90
23609;DHT22;11982;50.810;4.442;2023-01-25T07:06:08;0.80;99.90
23609;DHT22;11982;50.810;4.442;2023-01-25T07:08:35;0.70;99.90
23609;DHT22;11982;50.810;4.442;2023-01-25T07:11:03;0.70;99.90
23609;DHT22;11982;50.810;4.442;2023-01-25T07:13:30;0.60;99.90
23609;DHT22;11982;50.810;4.442;2023-01-25T07:15:58;0.70;99.90
23609;DHT22;11982;50.810;4.442;2023-01-25T07:18:25;0.80;99.90
23609;DHT22;11982;50.810;4.442;2023-01-25T07:20:55;0.90;99.90
23609;DHT22;11982;50.810;4.442;2023-01-25T07:23:26;0.90;99.90
23609;DHT22;11982;50.810;4.442;2023-01-25T07:25:52;0.90;99.90
23609;DHT22;11982;50.810;4.442;2023-01-25T07:28:18;0.80;99.90
23609;DHT22;11982;50.810;4.442;2023-01-25T07:30:43;0.70;99.90
23609;DHT22;11982;50.810;4.442;2023-01-25T07:33:10;0.70;99.90
23609;DHT22;11982;50.810;4.442;2023-01-25T07:35:36;0.70;99.90
23609;DHT22;11982;50.810;4.442;2023-01-25T07:38:02;0.50;99.90
23609;DHT22;11982;50.810;4.442;2023-01-25T07:40:28;0.50;99.90
23609;DHT22;11982;50.810;4.442;2023-01-25T07:42:54;0.40;99.90
23609;DHT22;11982;50.810;4.442;2023-01-25T07:45:20;0.50;99.90
23609;DHT22;11982;50.810;4.442;2023-01-25T07:47:45;0.70;99.90
23609;DHT22;11982;50.810;4.442;2023-01-25T07:50:11;0.70;99.90
23609;DHT22;11982;50.810;4.442;2023-01-25T07:52:37;0.90;99.90
23609;DHT22;11982;50.810;4.442;2023-01-25T07:55:04;1.00;99.90
23609;DHT22;11982;50.810;4.442;2023-01-25T07:57:30;0.90;99.90
23609;DHT22;11982;50.810;4.442;2023-01-25T07:59:55;0.90;99.90
23609;DHT22;11982;50.810;4.442;2023-01-25T08:02:21;1.00;99.90
23609;DHT22;11982;50.810;4.442;2023-01-25T08:04:47;0.90;99.90
23609;DHT22;11982;50.810;4.442;2023-01-25T08:07:13;1.00;99.90
23609;DHT22;11982;50.810;4.442;2023-01-25T08:09:40;0.80;99.90
23609;DHT22;11982;50.810;4.442;2023-01-25T08:12:06;0.80;99.90
23609;DHT22;11982;50.810;4.442;2023-01-25T08:14:32;0.80;99.90
23609;DHT22;11982;50.810;4.442;2023-01-25T08:16:58;0.80;99.90
23609;DHT22;11982;50.810;4.442;2023-01-25T08:19:24;0.80;99.90
23609;DHT22;11982;50.810;4.442;2023-01-25T08:21:51;0.80;99.90
23609;DHT22;11982;50.810;4.442;2023-01-25T08:24:17;1.10;99.90
23609;DHT22;11982;50.810;4.442;2023-01-25T08:26:43;1.20;99.90
23609;DHT22;11982;50.810;4.442;2023-01-25T08:29:10;1.30;99.90
23609;DHT22;11982;50.810;4.442;2023-01-25T08:31:39;1.30;99.90
23609;DHT22;11982;50.810;4.442;2023-01-25T08:34:05;1.40;99.90
23609;DHT22;11982;50.810;4.442;2023-01-25T08:36:31;1.20;99.90
23609;DHT22;11982;50.810;4.442;2023-01-25T08:39:00;1.30;99.90
23609;DHT22;11982;50.810;4.442;2023-01-25T08:41:27;1.50;99.90
23609;DHT22;11982;50.810;4.442;2023-01-25T08:43:54;1.60;99.90
23609;DHT22;11982;50.810;4.442;2023-01-25T08:46:21;1.60;99.90
23609;DHT22;11982;50.810;4.442;2023-01-25T08:48:47;1.70;99.90
23609;DHT22;11982;50.810;4.442;2023-01-25T08:51:16;1.50;99.90
23609;DHT22;11982;50.810;4.442;2023-01-25T08:53:41;1.60;99.90
23609;DHT22;11982;50.810;4.442;2023-01-25T08:56:09;1.70;99.90
23609;DHT22;11982;50.810;4.442;2023-01-25T08:58:41;1.80;99.90
23609;DHT22;11982;50.810;4.442;2023-01-25T09:01:10;1.90;99.90
23609;DHT22;11982;50.810;4.442;2023-01-25T09:03:40;2.00;99.90
23609;DHT22;11982;50.810;4.442;2023-01-25T09:06:07;2.10;99.90
23609;DHT22;11982;50.810;4.442;2023-01-25T09:08:33;2.10;99.90
23609;DHT22;11982;50.810;4.442;2023-01-25T09:11:06;1.90;99.90
23609;DHT22;11982;50.810;4.442;2023-01-25T09:13:32;1.90;99.90
23609;DHT22;11982;50.810;4.442;2023-01-25T09:16:03;1.90;99.90
23609;DHT22;11982;50.810;4.442;2023-01-25T09:18:29;2.10;99.90
23609;DHT22;11982;50.810;4.442;2023-01-25T09:20:56;2.10;99.90
23609;DHT22;11982;50.810;4.442;2023-01-25T09:23:22;2.10;99.90
23609;DHT22;11982;50.810;4.442;2023-01-25T09:28:21;2.00;99.90
23609;DHT22;11982;50.810;4.442;2023-01-25T09:30:54;2.20;99.90
23609;DHT22;11982;50.810;4.442;2023-01-25T09:33:24;2.40;99.90
23609;DHT22;11982;50.810;4.442;2023-01-25T09:35:49;2.60;99.90
23609;DHT22;11982;50.810;4.442;2023-01-25T09:38:15;2.60;99.90
23609;DHT22;11982;50.810;4.442;2023-01-25T09:40:48;2.50;99.90
23609;DHT22;11982;50.810;4.442;2023-01-25T09:46:44;2.10;99.90
23609;DHT22;11982;50.810;4.442;2023-01-25T09:49:34;1.60;99.90
23609;DHT22;11982;50.810;4.442;2023-01-25T09:54:52;1.80;99.90
23609;DHT22;11982;50.810;4.442;2023-01-25T09:59:44;2.10;99.90
23609;DHT22;11982;50.810;4.442;2023-01-25T10:04:48;2.20;99.90
23609;DHT22;11982;50.810;4.442;2023-01-25T10:07:21;2.10;99.90
23609;DHT22;11982;50.810;4.442;2023-01-25T10:10:02;2.10;99.90
23609;DHT22;11982;50.810;4.442;2023-01-25T10:12:35;2.40;99.90
23609;DHT22;11982;50.810;4.442;2023-01-25T10:15:01;2.40;99.90
23609;DHT22;11982;50.810;4.442;2023-01-25T10:17:38;2.60;99.90
23609;DHT22;11982;50.810;4.442;2023-01-25T10:25:59;2.80;99.90
23609;DHT22;11982;50.810;4.442;2023-01-25T10:31:15;3.00;99.90
23609;DHT22;11982;50.810;4.442;2023-01-25T10:33:43;2.60;99.90
23609;DHT22;11982;50.810;4.442;2023-01-25T10:36:19;2.60;99.90
23609;DHT22;11982;50.810;4.442;2023-01-25T10:38:47;2.20;99.90
23609;DHT22;11982;50.810;4.442;2023-01-25T10:41:35;2.00;99.90
23609;DHT22;11982;50.810;4.442;2023-01-25T10:44:03;2.10;99.90
23609;DHT22;11982;50.810;4.442;2023-01-25T10:47:23;2.30;99.90
23609;DHT22;11982;50.810;4.442;2023-01-25T10:49:55;2.60;99.90
23609;DHT22;11982;50.810;4.442;2023-01-25T10:52:23;2.70;99.90
23609;DHT22;11982;50.810;4.442;2023-01-25T10:55:16;2.70;99.90
23609;DHT22;11982;50.810;4.442;2023-01-25T10:58:02;2.50;99.90
23609;DHT22;11982;50.810;4.442;2023-01-25T11:00:39;2.30;99.90
23609;DHT22;11982;50.810;4.442;2023-01-25T11:03:09;2.30;99.90
23609;DHT22;11982;50.810;4.442;2023-01-25T11:05:55;2.30;99.90
23609;DHT22;11982;50.810;4.442;2023-01-25T11:08:32;2.50;99.90
23609;DHT22;11982;50.810;4.442;2023-01-25T11:10:58;2.40;99.90
23609;DHT22;11982;50.810;4.442;2023-01-25T11:13:26;2.10;99.90
23609;DHT22;11982;50.810;4.442;2023-01-25T11:18:31;2.10;99.90
23609;DHT22;11982;50.810;4.442;2023-01-25T11:23:31;2.70;99.90
23609;DHT22;11982;50.810;4.442;2023-01-25T11:26:16;2.90;99.90
23609;DHT22;11982;50.810;4.442;2023-01-25T11:28:43;3.00;99.90
23609;DHT22;11982;50.810;4.442;2023-01-25T11:31:19;2.90;99.90
23609;DHT22;11982;50.810;4.442;2023-01-25T11:33:45;2.90;99.90
23609;DHT22;11982;50.810;4.442;2023-01-25T11:36:25;3.00;99.90
23609;DHT22;11982;50.810;4.442;2023-01-25T11:55:37;2.50;99.90
23609;DHT22;11982;50.810;4.442;2023-01-25T11:58:58;2.60;99.90
23609;DHT22;11982;50.810;4.442;2023-01-25T12:20:38;1.90;99.90
23609;DHT22;11982;50.810;4.442;2023-01-25T12:25:54;2.00;99.90
23609;DHT22;11982;50.810;4.442;2023-01-25T12:28:40;1.80;99.90
23609;DHT22;11982;50.810;4.442;2023-01-25T12:31:18;1.90;99.90
23609;DHT22;11982;50.810;4.442;2023-01-25T12:33:56;2.30;99.90
23609;DHT22;11982;50.810;4.442;2023-01-25T12:36:33;2.70;99.90
23609;DHT22;11982;50.810;4.442;2023-01-25T12:39:03;3.00;99.90
23609;DHT22;11982;50.810;4.442;2023-01-25T12:44:26;3.40;99.90
23609;DHT22;11982;50.810;4.442;2023-01-25T12:47:50;3.50;99.90
23609;DHT22;11982;50.810;4.442;2023-01-25T12:53:26;2.90;99.90
23609;DHT22;11982;50.810;4.442;2023-01-25T12:55:51;3.00;99.90
23609;DHT22;11982;50.810;4.442;2023-01-25T12:58:42;3.00;99.90
23609;DHT22;11982;50.810;4.442;2023-01-25T13:01:32;2.90;99.90
23609;DHT22;11982;50.810;4.442;2023-01-25T13:11:31;2.80;99.90
23609;DHT22;11982;50.810;4.442;2023-01-25T13:16:53;3.50;99.90
23609;DHT22;11982;50.810;4.442;2023-01-25T13:19:20;3.60;99.90
23609;DHT22;11982;50.810;4.442;2023-01-25T13:21:48;3.40;99.90
23609;DHT22;11982;50.810;4.442;2023-01-25T13:24:17;3.20;99.90
23609;DHT22;11982;50.810;4.442;2023-01-25T13:27:23;3.00;99.90
23609;DHT22;11982;50.810;4.442;2023-01-25T13:30:13;3.10;99.90
23609;DHT22;11982;50.810;4.442;2023-01-25T13:35:30;3.20;99.90
23609;DHT22;11982;50.810;4.442;2023-01-25T13:40:35;3.00;99.90
23609;DHT22;11982;50.810;4.442;2023-01-25T13:43:18;2.60;99.90
23609;DHT22;11982;50.810;4.442;2023-01-25T13:45:48;2.50;99.90
23609;DHT22;11982;50.810;4.442;2023-01-25T13:48:18;2.70;99.90
23609;DHT22;11982;50.810;4.442;2023-01-25T13:50:57;3.00;99.90
23609;DHT22;11982;50.810;4.442;2023-01-25T13:53:26;2.90;99.90
23609;DHT22;11982;50.810;4.442;2023-01-25T13:55:58;2.90;99.90
23609;DHT22;11982;50.810;4.442;2023-01-25T14:03:33;2.20;99.90
23609;DHT22;11982;50.810;4.442;2023-01-25T14:06:00;1.90;99.90
23609;DHT22;11982;50.810;4.442;2023-01-25T14:08:29;1.90;99.90
23609;DHT22;11982;50.810;4.442;2023-01-25T14:10:56;2.20;99.90
23609;DHT22;11982;50.810;4.442;2023-01-25T14:13:22;2.30;99.90
23609;DHT22;11982;50.810;4.442;2023-01-25T14:15:59;2.60;99.90
23609;DHT22;11982;50.810;4.442;2023-01-25T14:18:31;2.60;99.90
23609;DHT22;11982;50.810;4.442;2023-01-25T14:21:17;2.60;99.90
23609;DHT22;11982;50.810;4.442;2023-01-25T14:23:43;2.30;99.90
23609;DHT22;11982;50.810;4.442;2023-01-25T14:26:28;1.90;99.90
23609;DHT22;11982;50.810;4.442;2023-01-25T14:28:55;1.90;99.90
23609;DHT22;11982;50.810;4.442;2023-01-25T14:31:24;1.80;99.90
23609;DHT22;11982;50.810;4.442;2023-01-25T14:33:51;1.70;99.90
23609;DHT22;11982;50.810;4.442;2023-01-25T14:36:27;1.70;99.90
23609;DHT22;11982;50.810;4.442;2023-01-25T14:38:54;1.70;99.90
23609;DHT22;11982;50.810;4.442;2023-01-25T14:41:33;1.70;99.90
23609;DHT22;11982;50.810;4.442;2023-01-25T14:44:13;1.70;99.90
23609;DHT22;11982;50.810;4.442;2023-01-25T14:46:40;1.60;99.90
23609;DHT22;11982;50.810;4.442;2023-01-25T14:52:11;1.60;99.90
23609;DHT22;11982;50.810;4.442;2023-01-25T14:57:34;1.10;99.90
23609;DHT22;11982;50.810;4.442;2023-01-25T15:02:45;1.10;99.90
23609;DHT22;11982;50.810;4.442;2023-01-25T15:05:27;1.00;99.90
23609;DHT22;11982;50.810;4.442;2023-01-25T15:07:56;1.10;99.90
23609;DHT22;11982;50.810;4.442;2023-01-25T15:12:59;1.00;99.90
23609;DHT22;11982;50.810;4.442;2023-01-25T15:15:27;1.10;99.90
23609;DHT22;11982;50.810;4.442;2023-01-25T15:17:53;1.10;99.90
23609;DHT22;11982;50.810;4.442;2023-01-25T15:23:19;0.90;99.90
23609;DHT22;11982;50.810;4.442;2023-01-25T15:25:56;1.10;99.90
23609;DHT22;11982;50.810;4.442;2023-01-25T15:28:24;1.10;99.90
23609;DHT22;11982;50.810;4.442;2023-01-25T15:30:50;1.10;99.90
23609;DHT22;11982;50.810;4.442;2023-01-25T15:33:25;1.00;99.90
23609;DHT22;11982;50.810;4.442;2023-01-25T15:35:52;1.00;99.90
23609;DHT22;11982;50.810;4.442;2023-01-25T15:38:18;1.00;99.90
23609;DHT22;11982;50.810;4.442;2023-01-25T15:40:44;1.00;99.90
23609;DHT22;11982;50.810;4.442;2023-01-25T15:43:12;1.00;99.90
23609;DHT22;11982;50.810;4.442;2023-01-25T15:45:48;1.00;99.90
23609;DHT22;11982;50.810;4.442;2023-01-25T15:48:25;1.10;99.90
23609;DHT22;11982;50.810;4.442;2023-01-25T15:50:51;1.00;99.90
23609;DHT22;11982;50.810;4.442;2023-01-25T15:53:19;0.80;99.90
23609;DHT22;11982;50.810;4.442;2023-01-25T15:55:50;0.60;99.90
23609;DHT22;11982;50.810;4.442;2023-01-25T15:58:30;0.40;99.90
23609;DHT22;11982;50.810;4.442;2023-01-25T16:00:57;0.40;99.90
23609;DHT22;11982;50.810;4.442;2023-01-25T16:03:25;0.40;99.90
23609;DHT22;11982;50.810;4.442;2023-01-25T16:06:03;0.40;99.90
23609;DHT22;11982;50.810;4.442;2023-01-25T16:08:29;0.40;99.90
23609;DHT22;11982;50.810;4.442;2023-01-25T16:10:55;0.50;99.90
23609;DHT22;11982;50.810;4.442;2023-01-25T16:13:21;0.50;99.90
23609;DHT22;11982;50.810;4.442;2023-01-25T16:15:51;0.30;99.90
23609;DHT22;11982;50.810;4.442;2023-01-25T16:18:17;0.20;99.90
23609;DHT22;11982;50.810;4.442;2023-01-25T16:20:42;0.20;99.90
23609;DHT22;11982;50.810;4.442;2023-01-25T16:23:09;0.20;99.90
23609;DHT22;11982;50.810;4.442;2023-01-25T16:25:37;0.00;99.90
23609;DHT22;11982;50.810;4.442;2023-01-25T16:28:03;-0.10;99.90
23609;DHT22;11982;50.810;4.442;2023-01-25T16:30:29;-0.10;99.90
23609;DHT22;11982;50.810;4.442;2023-01-25T16:32:58;-0.10;99.90
23609;DHT22;11982;50.810;4.442;2023-01-25T16:35:24;-0.10;99.90
23609;DHT22;11982;50.810;4.442;2023-01-25T16:37:50;0.00;99.90
23609;DHT22;11982;50.810;4.442;2023-01-25T16:40:23;-0.10;99.90
23609;DHT22;11982;50.810;4.442;2023-01-25T16:42:49;0.00;99.90
23609;DHT22;11982;50.810;4.442;2023-01-25T16:45:15;0.10;99.90
23609;DHT22;11982;50.810;4.442;2023-01-25T16:47:42;0.10;99.90
23609;DHT22;11982;50.810;4.442;2023-01-25T16:50:28;0.10;99.90
23609;DHT22;11982;50.810;4.442;2023-01-25T16:52:53;0.10;99.90
23609;DHT22;11982;50.810;4.442;2023-01-25T16:55:20;0.00;99.90
23609;DHT22;11982;50.810;4.442;2023-01-25T16:57:49;0.10;99.90
23609;DHT22;11982;50.810;4.442;2023-01-25T17:00:15;-0.10;99.90
23609;DHT22;11982;50.810;4.442;2023-01-25T17:02:42;-0.10;99.90
23609;DHT22;11982;50.810;4.442;2023-01-25T17:05:09;-0.30;99.90
23609;DHT22;11982;50.810;4.442;2023-01-25T17:07:35;-0.40;99.90
23609;DHT22;11982;50.810;4.442;2023-01-25T17:10:02;-0.40;99.90
23609;DHT22;11982;50.810;4.442;2023-01-25T17:12:28;-0.40;99.90
23609;DHT22;11982;50.810;4.442;2023-01-25T17:14:54;-0.40;99.90
23609;DHT22;11982;50.810;4.442;2023-01-25T17:17:20;-0.30;99.90
23609;DHT22;11982;50.810;4.442;2023-01-25T17:19:48;-0.20;99.90
23609;DHT22;11982;50.810;4.442;2023-01-25T17:22:14;-0.20;99.90
23609;DHT22;11982;50.810;4.442;2023-01-25T17:24:40;-0.20;99.90
23609;DHT22;11982;50.810;4.442;2023-01-25T17:27:06;-0.20;99.90
23609;DHT22;11982;50.810;4.442;2023-01-25T17:29:31;-0.40;99.90
23609;DHT22;11982;50.810;4.442;2023-01-25T17:31:57;-0.40;99.90
23609;DHT22;11982;50.810;4.442;2023-01-25T17:34:23;-0.40;99.90
23609;DHT22;11982;50.810;4.442;2023-01-25T17:36:50;-0.50;99.90
23609;DHT22;11982;50.810;4.442;2023-01-25T17:39:17;-0.50;99.90
23609;DHT22;11982;50.810;4.442;2023-01-25T17:41:47;-0.50;99.90
23609;DHT22;11982;50.810;4.442;2023-01-25T17:44:17;-0.40;99.90
23609;DHT22;11982;50.810;4.442;2023-01-25T17:46:44;-0.20;99.90
23609;DHT22;11982;50.810;4.442;2023-01-25T17:49:12;-0.20;99.90
23609;DHT22;11982;50.810;4.442;2023-01-25T17:51:38;-0.20;99.90
23609;DHT22;11982;50.810;4.442;2023-01-25T17:54:04;-0.20;99.90
23609;DHT22;11982;50.810;4.442;2023-01-25T17:56:30;-0.10;99.90
23609;DHT22;11982;50.810;4.442;2023-01-25T17:58:56;-0.10;99.90
23609;DHT22;11982;50.810;4.442;2023-01-25T18:01:25;0.00;99.90